createdAt,value
2019-01-30T00:01:33.946Z,10.85
2019-01-30T00:02:41.747Z,11.85
2019-01-30T00:03:58.600Z,17.15
2019-01-30T00:05:15.618Z,13.43
2019-01-30T00:06:31.908Z,13.65
2019-01-30T00:07:47.962Z,11.88
2019-01-30T00:09:05.987Z,12.25
2019-01-30T00:10:22.817Z,15.05
2019-01-30T00:11:41.541Z,13.45
2019-01-30T00:12:57.957Z,14.05
2019-01-30T00:14:14.117Z,9.03
2019-01-30T00:15:30.277Z,10.88
2019-01-30T00:16:46.205Z,11.20
2019-01-30T00:18:02.468Z,14.33
2019-01-30T00:19:18.626Z,9.20
2019-01-30T00:20:35.096Z,15.20
2019-01-30T00:21:52.097Z,10.58
2019-01-30T00:23:08.458Z,13.88
2019-01-30T00:24:25.364Z,12.23
2019-01-30T00:25:41.857Z,11.85
2019-01-30T00:26:58.770Z,13.40
2019-01-30T00:28:14.881Z,11.97
2019-01-30T00:29:32.093Z,9.93
2019-01-30T00:30:48.357Z,11.28
2019-01-30T00:32:04.235Z,7.80
2019-01-30T00:33:21.613Z,10.35
2019-01-30T00:34:40.720Z,12.40
2019-01-30T00:35:57.954Z,11.25
2019-01-30T00:37:14.811Z,8.98
2019-01-30T00:38:30.793Z,10.65
2019-01-30T00:39:49.257Z,9.73
2019-01-30T00:41:05.796Z,11.10
2019-01-30T00:42:22.105Z,17.50
2019-01-30T00:43:40.373Z,8.45
2019-01-30T00:44:57.186Z,12.47
2019-01-30T00:46:14.032Z,8.73
2019-01-30T00:47:31.233Z,10.75
2019-01-30T00:48:49.454Z,11.25
2019-01-30T00:50:07.551Z,11.25
2019-01-30T00:51:23.792Z,12.63
2019-01-30T00:52:40.189Z,16.05
2019-01-30T00:53:59.901Z,11.25
2019-01-30T00:55:16.382Z,12.53
2019-01-30T00:56:32.398Z,10.72
2019-01-30T00:57:48.534Z,13.50
2019-01-30T00:59:05.257Z,14.00
2019-01-30T01:00:21.225Z,19.98
2019-01-30T01:01:37.401Z,9.98
2019-01-30T01:02:54.171Z,19.35
2019-01-30T01:04:11.008Z,9.55
2019-01-30T01:05:27.144Z,10.63
2019-01-30T01:06:43.573Z,12.53
2019-01-30T01:08:00.099Z,10.35
2019-01-30T01:09:15.216Z,15.10
2019-01-30T01:12:06.216Z,9.73
2019-01-30T01:13:23.157Z,9.05
2019-01-30T01:14:39.150Z,10.75
2019-01-30T01:15:55.811Z,9.60
2019-01-30T01:17:11.826Z,10.72
2019-01-30T01:18:27.776Z,9.55
2019-01-30T01:19:44.601Z,8.88
2019-01-30T01:21:00.927Z,16.07
2019-01-30T01:22:17.900Z,11.05
2019-01-30T01:23:33.930Z,10.55
2019-01-30T01:24:51.163Z,8.30
2019-01-30T01:26:08.100Z,12.98
2019-01-30T01:27:23.168Z,14.53
2019-01-30T01:30:13.658Z,10.00
2019-01-30T01:31:30.475Z,10.95
2019-01-30T01:32:46.934Z,16.60
2019-01-30T01:34:01.941Z,8.33
2019-01-30T01:35:25.796Z,14.00
2019-01-30T01:36:31.089Z,12.37
2019-01-30T01:37:36.131Z,9.93
2019-01-30T01:40:37.357Z,9.10
2019-01-30T01:41:53.713Z,9.05
2019-01-30T01:43:11.092Z,12.35
2019-01-30T01:44:27.819Z,10.85
2019-01-30T01:45:43.896Z,10.70
2019-01-30T01:47:00.288Z,11.43
2019-01-30T01:48:16.552Z,9.80
2019-01-30T01:49:32.494Z,17.75
2019-01-30T01:50:49.243Z,10.08
2019-01-30T01:52:05.667Z,10.30
2019-01-30T01:53:21.976Z,10.68
2019-01-30T01:54:37.941Z,12.37
2019-01-30T01:55:54.745Z,7.40
2019-01-30T01:57:11.772Z,9.23
2019-01-30T01:58:27.868Z,11.35
2019-01-30T01:59:45.211Z,8.13
2019-01-30T02:01:03.705Z,10.43
2019-01-30T02:02:20.577Z,16.62
2019-01-30T02:03:35.608Z,8.05
2019-01-30T02:04:59.895Z,10.93
2019-01-30T02:06:16.274Z,11.38
2019-01-30T02:07:33.037Z,9.28
2019-01-30T02:08:49.849Z,8.38
2019-01-30T02:10:06.675Z,9.65
2019-01-30T02:11:22.677Z,8.00
2019-01-30T02:12:38.989Z,11.50
2019-01-30T02:13:55.242Z,8.48
2019-01-30T02:15:11.759Z,8.50
2019-01-30T02:16:27.741Z,8.90
2019-01-30T02:17:43.729Z,8.75
2019-01-30T02:18:59.991Z,9.98
2019-01-30T02:20:16.067Z,11.28
2019-01-30T02:21:34.976Z,10.20
2019-01-30T02:22:51.519Z,7.83
2019-01-30T02:24:07.894Z,7.95
2019-01-30T02:25:24.256Z,8.65
2019-01-30T02:26:40.725Z,10.38
2019-01-30T02:27:57.101Z,9.68
2019-01-30T02:29:13.324Z,9.13
2019-01-30T02:30:29.351Z,9.68
2019-01-30T02:31:45.587Z,7.22
2019-01-30T02:33:04.662Z,10.50
2019-01-30T02:34:21.587Z,8.85
2019-01-30T02:35:37.926Z,9.90
2019-01-30T02:36:57.165Z,7.70
2019-01-30T02:38:12.449Z,8.63
2019-01-30T02:41:13.629Z,6.90
2019-01-30T02:42:30.911Z,8.28
2019-01-30T02:43:47.006Z,14.07
2019-01-30T02:45:03.017Z,8.40
2019-01-30T02:46:19.777Z,10.28
2019-01-30T02:47:39.049Z,8.18
2019-01-30T02:48:56.036Z,11.95
2019-01-30T02:50:12.181Z,8.10
2019-01-30T02:51:28.671Z,9.03
2019-01-30T02:52:45.204Z,13.93
2019-01-30T02:54:02.065Z,8.58
2019-01-30T02:55:18.620Z,11.15
2019-01-30T02:57:58.511Z,7.20
2019-01-30T02:59:14.804Z,9.80
2019-01-30T03:00:30.710Z,9.03
2019-01-30T03:02:22.344Z,10.13
2019-01-30T03:03:28.547Z,12.45
2019-01-30T03:04:44.346Z,6.70
2019-01-30T03:06:00.349Z,13.20
2019-01-30T03:07:17.015Z,11.18
2019-01-30T03:08:33.167Z,10.55
2019-01-30T03:09:49.377Z,14.90
2019-01-30T03:11:05.484Z,8.00
2019-01-30T03:12:23.029Z,10.68
2019-01-30T03:13:39.537Z,13.28
2019-01-30T03:14:55.546Z,13.40
2019-01-30T03:16:12.260Z,13.43
2019-01-30T03:17:28.490Z,11.22
2019-01-30T03:18:44.936Z,19.52
2019-01-30T03:20:01.199Z,12.23
2019-01-30T03:21:17.185Z,11.97
2019-01-30T03:22:33.119Z,9.80
2019-01-30T03:23:49.146Z,9.50
2019-01-30T03:25:04.947Z,7.97
2019-01-30T03:26:21.084Z,15.15
2019-01-30T03:27:37.237Z,12.75
2019-01-30T03:28:53.615Z,13.62
2019-01-30T03:30:09.482Z,8.95
2019-01-30T03:31:25.586Z,8.95
2019-01-30T03:32:41.359Z,9.15
2019-01-30T03:33:57.315Z,15.10
2019-01-30T03:35:15.476Z,9.10
2019-01-30T03:36:31.358Z,12.20
2019-01-30T03:37:47.634Z,8.63
2019-01-30T03:39:02.535Z,14.30
2019-01-30T03:40:37.959Z,11.12
2019-01-30T03:41:43.871Z,9.58
2019-01-30T03:43:00.015Z,9.30
2019-01-30T03:44:16.411Z,9.63
2019-01-30T03:45:32.510Z,10.43
2019-01-30T03:46:48.378Z,10.95
2019-01-30T03:48:04.686Z,8.45
2019-01-30T03:49:20.807Z,13.58
2019-01-30T03:50:36.803Z,8.88
2019-01-30T03:51:53.086Z,8.25
2019-01-30T03:53:09.227Z,10.40
2019-01-30T03:54:25.261Z,10.25
2019-01-30T03:55:41.218Z,12.35
2019-01-30T03:56:57.217Z,9.83
2019-01-30T03:58:13.344Z,10.20
2019-01-30T03:59:29.535Z,9.35
2019-01-30T04:00:45.583Z,8.55
2019-01-30T04:02:01.907Z,7.45
2019-01-30T04:03:18.062Z,9.45
2019-01-30T04:04:33.899Z,15.68
2019-01-30T04:05:49.939Z,10.43
2019-01-30T04:07:05.834Z,9.43
2019-01-30T04:08:22.646Z,10.30
2019-01-30T04:09:38.606Z,7.97
2019-01-30T04:10:54.931Z,9.63
2019-01-30T04:12:10.856Z,9.10
2019-01-30T04:13:27.205Z,11.03
2019-01-30T04:14:43.191Z,10.20
2019-01-30T04:15:59.083Z,9.33
2019-01-30T04:17:15.646Z,9.00
2019-01-30T04:18:31.376Z,12.23
2019-01-30T04:19:47.901Z,10.43
2019-01-30T04:21:04.499Z,8.08
2019-01-30T04:22:21.071Z,10.53
2019-01-30T04:23:37.161Z,10.48
2019-01-30T04:24:53.068Z,15.18
2019-01-30T04:26:09.342Z,10.90
2019-01-30T04:27:25.614Z,10.00
2019-01-30T04:28:41.984Z,7.95
2019-01-30T04:29:58.185Z,7.20
2019-01-30T04:31:14.594Z,10.40
2019-01-30T04:32:29.396Z,7.95
2019-01-30T04:34:07.168Z,9.50
2019-01-30T04:35:10.802Z,7.50
2019-01-30T04:36:26.590Z,9.83
2019-01-30T04:37:42.931Z,7.50
2019-01-30T04:38:59.117Z,12.80
2019-01-30T04:40:15.566Z,10.82
2019-01-30T04:41:31.825Z,8.58
2019-01-30T04:42:48.121Z,7.97
2019-01-30T04:44:04.592Z,7.67
2019-01-30T04:45:20.837Z,10.15
2019-01-30T04:46:37.018Z,10.20
2019-01-30T04:47:52.965Z,7.37
2019-01-30T04:49:09.131Z,8.30
2019-01-30T04:50:25.456Z,11.12
2019-01-30T04:51:41.629Z,10.28
2019-01-30T04:52:58.712Z,8.85
2019-01-30T04:54:14.989Z,10.85
2019-01-30T04:55:30.859Z,11.30
2019-01-30T04:56:47.103Z,7.97
2019-01-30T04:58:03.402Z,7.70
2019-01-30T04:59:20.146Z,8.90
2019-01-30T05:00:36.285Z,9.20
2019-01-30T05:01:52.514Z,11.10
2019-01-30T05:03:09.446Z,13.93
2019-01-30T05:04:26.065Z,11.55
2019-01-30T05:05:42.047Z,11.12
2019-01-30T05:06:58.372Z,15.50
2019-01-30T05:08:14.542Z,10.53
2019-01-30T05:09:30.563Z,10.45
2019-01-30T05:10:45.403Z,11.43
2019-01-30T05:12:28.097Z,8.40
2019-01-30T05:13:43.875Z,14.63
2019-01-30T05:15:00.289Z,8.98
2019-01-30T05:16:16.972Z,10.08
2019-01-30T05:17:33.747Z,9.98
2019-01-30T05:18:50.582Z,8.40
2019-01-30T05:20:09.534Z,9.83
2019-01-30T05:21:24.501Z,9.35
2019-01-30T05:22:39.152Z,13.13
2019-01-30T05:23:54.506Z,9.45
2019-01-30T05:25:10.409Z,14.35
2019-01-30T05:26:30.484Z,12.35
2019-01-30T05:27:46.835Z,14.68
2019-01-30T05:29:03.643Z,13.35
2019-01-30T05:30:43.850Z,14.07
2019-01-30T05:32:01.529Z,8.70
2019-01-30T05:33:17.962Z,8.80
2019-01-30T05:34:34.042Z,11.18
2019-01-30T05:35:50.318Z,10.85
2019-01-30T05:37:07.227Z,8.93
2019-01-30T05:38:23.144Z,10.70
2019-01-30T05:39:39.102Z,11.25
2019-01-30T05:40:55.805Z,11.10
2019-01-30T05:42:11.830Z,9.63
2019-01-30T05:43:28.547Z,8.45
2019-01-30T05:44:45.393Z,12.25
2019-01-30T05:46:02.384Z,8.08
2019-01-30T05:47:19.816Z,7.22
2019-01-30T05:48:36.485Z,10.80
2019-01-30T05:49:52.953Z,10.72
2019-01-30T05:51:09.402Z,9.38
2019-01-30T05:52:25.935Z,10.10
2019-01-30T05:53:45.926Z,8.33
2019-01-30T05:55:02.418Z,9.40
2019-01-30T05:56:20.288Z,7.45
2019-01-30T05:57:36.338Z,10.68
2019-01-30T05:58:52.252Z,10.48
2019-01-30T06:00:08.583Z,7.58
2019-01-30T06:01:25.347Z,28.92
2019-01-30T06:02:41.533Z,18.02
2019-01-30T06:03:57.722Z,48.40
2019-01-30T06:05:13.635Z,26.45
2019-01-30T06:06:29.969Z,35.58
2019-01-30T06:07:45.807Z,15.25
2019-01-30T06:09:01.823Z,79.58
2019-01-30T06:10:18.610Z,32.08
2019-01-30T06:11:42.573Z,17.73
2019-01-30T06:12:58.935Z,11.65
2019-01-30T06:14:15.418Z,10.03
2019-01-30T06:15:31.376Z,14.30
2019-01-30T06:16:47.384Z,10.23
2019-01-30T06:19:26.193Z,9.43
2019-01-30T06:20:31.182Z,10.32
2019-01-30T06:21:36.013Z,13.70
2019-01-30T06:22:41.015Z,10.78
2019-01-30T06:23:45.701Z,10.05
2019-01-30T06:24:50.449Z,16.05
2019-01-30T06:25:56.205Z,10.68
2019-01-30T06:27:02.030Z,12.45
2019-01-30T06:28:44.832Z,11.93
2019-01-30T06:30:09.610Z,10.85
2019-01-30T06:31:14.684Z,16.15
2019-01-30T06:32:21.929Z,12.65
2019-01-30T06:33:27.957Z,11.57
2019-01-30T06:34:33.052Z,10.72
2019-01-30T06:35:37.734Z,10.68
2019-01-30T06:36:45.283Z,15.90
2019-01-30T06:37:50.721Z,13.60
2019-01-30T06:38:55.478Z,9.88
2019-01-30T06:40:00.193Z,9.38
2019-01-30T06:41:05.055Z,9.85
2019-01-30T06:42:09.703Z,11.70
2019-01-30T06:43:14.606Z,8.60
2019-01-30T06:44:19.597Z,10.03
2019-01-30T06:45:26.732Z,20.00
2019-01-30T06:46:31.592Z,9.65
2019-01-30T06:47:38.208Z,10.00
2019-01-30T06:48:43.332Z,11.90
2019-01-30T06:49:49.885Z,12.43
2019-01-30T06:51:25.862Z,10.38
2019-01-30T06:52:36.309Z,11.83
2019-01-30T06:53:52.393Z,11.43
2019-01-30T06:55:09.803Z,14.75
2019-01-30T06:56:25.806Z,14.47
2019-01-30T06:57:42.283Z,14.70
2019-01-30T06:58:58.482Z,13.95
2019-01-30T07:01:34.149Z,13.88
2019-01-30T07:02:52.483Z,16.87
2019-01-30T07:04:14.360Z,13.75
2019-01-30T07:05:32.828Z,14.93
2019-01-30T07:06:47.650Z,13.68
2019-01-30T07:09:39.502Z,17.05
2019-01-30T07:10:55.413Z,13.18
2019-01-30T07:12:11.636Z,20.62
2019-01-30T07:13:27.786Z,15.53
2019-01-30T07:14:43.768Z,16.57
2019-01-30T07:15:59.927Z,16.65
2019-01-30T07:17:16.050Z,14.78
2019-01-30T07:18:32.178Z,14.53
2019-01-30T07:19:48.964Z,15.78
2019-01-30T07:21:05.353Z,17.05
2019-01-30T07:22:23.219Z,14.65
2019-01-30T07:23:39.463Z,19.10
2019-01-30T07:24:58.715Z,16.17
2019-01-30T07:26:14.742Z,14.47
2019-01-30T07:27:30.596Z,18.27
2019-01-30T07:28:47.020Z,18.55
2019-01-30T07:30:04.042Z,14.47
2019-01-30T07:31:20.559Z,19.75
2019-01-30T07:32:42.273Z,20.57
2019-01-30T07:33:57.955Z,18.85
2019-01-30T07:35:16.843Z,13.98
2019-01-30T07:36:32.797Z,20.00
2019-01-30T07:37:52.267Z,13.32
2019-01-30T07:39:08.818Z,15.98
2019-01-30T07:40:27.685Z,14.83
2019-01-30T07:41:43.601Z,15.10
2019-01-30T07:43:00.272Z,19.65
2019-01-30T07:44:17.765Z,17.25
2019-01-30T07:45:36.373Z,15.80
2019-01-30T07:47:11.098Z,22.85
2019-01-30T07:48:16.049Z,21.20
2019-01-30T07:50:00.313Z,14.05
2019-01-30T07:50:56.021Z,17.98
2019-01-30T07:52:12.476Z,16.97
2019-01-30T07:53:29.194Z,14.50
2019-01-30T07:54:46.131Z,15.23
2019-01-30T07:56:02.562Z,16.67
2019-01-30T07:57:19.553Z,14.98
2019-01-30T07:58:36.354Z,19.57
2019-01-30T07:59:56.875Z,17.57
2019-01-30T08:04:24.219Z,18.30
2019-01-30T08:05:40.694Z,20.97
2019-01-30T08:06:56.774Z,19.37
2019-01-30T08:08:14.758Z,18.15
2019-01-30T08:09:32.221Z,22.55
2019-01-30T08:10:49.414Z,16.12
2019-01-30T08:11:54.501Z,15.48
2019-01-30T08:12:59.361Z,16.37
2019-01-30T08:14:07.044Z,19.70
2019-01-30T08:20:07.499Z,21.17
2019-01-30T08:21:24.468Z,25.08
2019-01-30T08:22:41.476Z,18.20
2019-01-30T08:24:00.796Z,14.33
2019-01-30T08:25:17.436Z,17.62
2019-01-30T08:26:36.765Z,17.10
2019-01-30T08:27:56.822Z,18.02
2019-01-30T08:29:18.596Z,15.50
2019-01-30T08:30:31.512Z,18.10
2019-01-30T08:31:48.351Z,16.35
2019-01-30T08:33:05.999Z,14.85
2019-01-30T08:34:23.328Z,15.70
2019-01-30T08:35:39.734Z,20.90
2019-01-30T08:36:56.100Z,16.75
2019-01-30T08:38:14.820Z,16.48
2019-01-30T08:39:33.579Z,24.32
2019-01-30T08:40:50.537Z,22.65
2019-01-30T08:42:06.553Z,16.35
2019-01-30T08:43:27.618Z,19.00
2019-01-30T08:44:47.078Z,16.07
2019-01-30T08:46:03.886Z,19.45
2019-01-30T08:47:20.727Z,19.45
2019-01-30T08:48:38.930Z,13.28
2019-01-30T08:49:55.544Z,18.82
2019-01-30T08:51:11.705Z,28.17
2019-01-30T08:52:28.072Z,16.55
2019-01-30T08:53:47.095Z,19.42
2019-01-30T08:55:03.040Z,21.23
2019-01-30T08:56:19.297Z,19.65
2019-01-30T08:57:38.783Z,19.48
2019-01-30T08:58:56.357Z,20.08
2019-01-30T09:00:12.615Z,20.40
2019-01-30T09:01:29.250Z,19.95
2019-01-30T09:02:45.675Z,20.35
2019-01-30T09:04:02.226Z,20.92
2019-01-30T09:05:18.961Z,16.65
2019-01-30T09:06:35.613Z,18.57
2019-01-30T09:08:10.850Z,15.78
2019-01-30T09:09:19.857Z,19.07
2019-01-30T09:10:37.475Z,20.52
2019-01-30T09:11:57.653Z,14.83
2019-01-30T09:13:13.082Z,19.92
2019-01-30T09:14:29.094Z,25.10
2019-01-30T09:15:45.763Z,19.30
2019-01-30T09:17:01.901Z,20.27
2019-01-30T09:18:19.183Z,15.65
2019-01-30T09:19:38.980Z,15.90
2019-01-30T09:20:55.196Z,16.10
2019-01-30T09:22:11.959Z,13.70
2019-01-30T09:23:38.854Z,18.02
2019-01-30T09:24:49.010Z,16.82
2019-01-30T09:26:05.376Z,16.70
2019-01-30T09:27:24.389Z,16.57
2019-01-30T09:28:44.360Z,17.95
2019-01-30T09:30:00.470Z,19.25
2019-01-30T09:31:17.031Z,21.35
2019-01-30T09:32:36.344Z,17.17
2019-01-30T09:33:55.195Z,17.82
2019-01-30T09:35:15.632Z,14.35
2019-01-30T09:36:33.421Z,15.63
2019-01-30T09:39:15.223Z,14.03
2019-01-30T09:40:32.999Z,18.60
2019-01-30T09:41:49.842Z,14.75
2019-01-30T09:43:26.338Z,16.45
2019-01-30T09:44:32.688Z,17.45
2019-01-30T09:45:52.537Z,15.75
2019-01-30T09:47:10.011Z,19.62
2019-01-30T09:48:26.374Z,19.45
2019-01-30T09:51:15.183Z,15.85
2019-01-30T09:52:34.387Z,14.18
2019-01-30T09:53:50.543Z,12.95
2019-01-30T09:55:06.743Z,16.82
2019-01-30T09:56:23.548Z,119.37
2019-01-30T09:57:45.567Z,73.87
2019-01-30T09:59:34.271Z,48.20
2019-01-30T10:01:07.155Z,34.05
2019-01-30T10:02:15.563Z,25.57
2019-01-30T10:03:24.281Z,27.45
2019-01-30T10:04:31.731Z,26.82
2019-01-30T10:05:37.596Z,20.72
2019-01-30T10:06:48.721Z,20.75
2019-01-30T10:07:55.336Z,18.42
2019-01-30T10:09:07.641Z,18.32
2019-01-30T10:10:16.569Z,15.20
2019-01-30T10:11:33.182Z,15.23
2019-01-30T10:14:18.642Z,22.10
2019-01-30T10:15:36.033Z,15.50
2019-01-30T10:16:55.731Z,17.30
2019-01-30T10:18:12.262Z,13.32
2019-01-30T10:19:29.013Z,15.23
2019-01-30T10:20:47.546Z,17.15
2019-01-30T10:22:07.120Z,14.85
2019-01-30T10:23:23.578Z,23.00
2019-01-30T10:24:40.704Z,27.07
2019-01-30T10:26:01.812Z,18.55
2019-01-30T10:27:21.846Z,17.85
2019-01-30T10:28:41.119Z,16.05
2019-01-30T10:29:58.970Z,22.62
2019-01-30T10:31:15.329Z,18.62
2019-01-30T10:32:32.456Z,19.60
2019-01-30T10:34:08.251Z,16.57
2019-01-30T10:35:16.758Z,21.42
2019-01-30T10:36:33.704Z,21.45
2019-01-30T10:37:52.415Z,25.77
2019-01-30T10:39:09.662Z,25.62
2019-01-30T10:40:27.331Z,22.62
2019-01-30T10:42:16.577Z,19.98
2019-01-30T10:43:28.261Z,19.15
2019-01-30T10:44:44.232Z,19.92
2019-01-30T10:46:05.881Z,18.35
2019-01-30T10:50:20.635Z,19.73
2019-01-30T10:51:37.242Z,24.63
2019-01-30T10:53:10.899Z,19.07
2019-01-30T10:54:16.925Z,20.10
2019-01-30T10:55:33.850Z,20.68
2019-01-30T10:58:04.734Z,24.40
2019-01-30T10:59:21.709Z,18.95
2019-01-30T11:00:41.006Z,19.05
2019-01-30T11:01:57.488Z,21.62
2019-01-30T11:03:14.502Z,21.23
2019-01-30T11:04:26.628Z,15.18
2019-01-30T11:05:36.593Z,15.58
2019-01-30T11:06:41.287Z,19.65
2019-01-30T11:07:46.287Z,20.57
2019-01-30T11:09:22.049Z,23.65
2019-01-30T11:10:20.847Z,22.05
2019-01-30T11:11:25.478Z,21.10
2019-01-30T11:12:31.212Z,20.20
2019-01-30T11:13:36.108Z,18.73
2019-01-30T11:15:13.174Z,21.60
2019-01-30T11:16:43.312Z,34.30
2019-01-30T11:17:47.317Z,24.45
2019-01-30T11:19:07.694Z,25.97
2019-01-30T11:20:26.195Z,33.48
2019-01-30T11:21:42.478Z,22.80
2019-01-30T11:23:01.297Z,20.95
2019-01-30T11:24:18.196Z,24.47
2019-01-30T11:25:35.845Z,26.35
2019-01-30T11:26:57.026Z,24.95
2019-01-30T11:28:13.913Z,23.00
2019-01-30T11:29:30.966Z,24.67
2019-01-30T11:32:55.575Z,28.20
2019-01-30T11:33:52.001Z,22.85
2019-01-30T11:35:10.804Z,25.23
2019-01-30T11:36:28.085Z,20.82
2019-01-30T11:37:46.104Z,22.22
2019-01-30T11:39:05.376Z,24.40
2019-01-30T11:40:32.254Z,18.30
2019-01-30T11:41:39.609Z,19.52
2019-01-30T11:42:45.743Z,23.30
2019-01-30T11:43:52.828Z,22.87
2019-01-30T11:44:58.104Z,19.00
2019-01-30T11:46:02.774Z,20.65
2019-01-30T11:47:08.166Z,23.70
2019-01-30T11:50:07.779Z,29.25
2019-01-30T11:51:25.741Z,24.60
2019-01-30T11:52:42.193Z,27.75
2019-01-30T11:54:00.342Z,23.12
2019-01-30T11:55:16.660Z,25.48
2019-01-30T11:56:36.895Z,24.85
2019-01-30T11:59:14.515Z,23.80
2019-01-30T12:02:16.890Z,17.80
2019-01-30T12:03:37.000Z,21.80
2019-01-30T12:04:57.278Z,26.73
2019-01-30T12:06:13.555Z,16.35
2019-01-30T12:07:30.365Z,20.95
2019-01-30T12:08:46.505Z,22.25
2019-01-30T12:10:05.840Z,18.32
2019-01-30T12:11:23.625Z,20.55
2019-01-30T12:12:40.579Z,23.40
2019-01-30T12:13:57.177Z,27.00
2019-01-30T12:17:16.514Z,20.25
2019-01-30T12:18:22.909Z,22.20
2019-01-30T12:19:40.992Z,28.92
2019-01-30T12:20:58.113Z,22.05
2019-01-30T12:22:14.599Z,23.15
2019-01-30T12:23:35.632Z,26.65
2019-01-30T12:24:52.175Z,22.25
2019-01-30T12:26:15.738Z,22.62
2019-01-30T12:27:21.039Z,22.15
2019-01-30T12:28:25.854Z,30.68
2019-01-30T12:29:30.826Z,22.32
2019-01-30T12:30:37.183Z,23.83
2019-01-30T12:31:49.343Z,30.23
2019-01-30T12:32:57.298Z,23.32
2019-01-30T12:34:06.740Z,25.80
2019-01-30T12:35:14.802Z,28.40
2019-01-30T12:36:22.205Z,24.47
2019-01-30T12:37:27.446Z,25.35
2019-01-30T12:38:32.330Z,23.77
2019-01-30T12:39:37.268Z,26.10
2019-01-30T12:40:48.078Z,24.27
2019-01-30T12:41:55.981Z,26.97
2019-01-30T12:43:01.166Z,20.88
2019-01-30T12:44:09.554Z,20.57
2019-01-30T12:45:23.089Z,23.40
2019-01-30T12:48:21.300Z,24.85
2019-01-30T12:49:37.773Z,19.23
2019-01-30T12:50:54.439Z,24.92
2019-01-30T12:58:40.395Z,21.20
2019-01-30T12:59:56.484Z,24.32
2019-01-30T13:01:15.892Z,136.70
2019-01-30T13:02:32.211Z,41.88
2019-01-30T13:03:48.612Z,41.85
2019-01-30T13:05:06.504Z,31.23
2019-01-30T13:06:22.315Z,32.33
2019-01-30T13:07:38.979Z,38.13
2019-01-30T13:08:56.200Z,40.78
2019-01-30T13:10:12.847Z,27.40
2019-01-30T13:11:29.170Z,28.12
2019-01-30T13:12:46.148Z,23.15
2019-01-30T13:14:02.444Z,30.95
2019-01-30T13:15:18.598Z,28.47
2019-01-30T13:16:35.178Z,23.02
2019-01-30T13:17:51.395Z,24.07
2019-01-30T13:19:07.515Z,23.55
2019-01-30T13:21:58.258Z,30.27
2019-01-30T13:23:14.811Z,22.07
2019-01-30T13:24:30.950Z,24.57
2019-01-30T13:25:47.281Z,23.20
2019-01-30T13:27:03.678Z,21.95
2019-01-30T13:28:22.678Z,21.75
2019-01-30T13:29:39.639Z,25.23
2019-01-30T13:30:56.400Z,20.25
2019-01-30T13:32:12.956Z,25.15
2019-01-30T13:33:28.895Z,27.80
2019-01-30T13:34:48.921Z,21.90
2019-01-30T13:36:06.037Z,26.90
2019-01-30T13:37:22.222Z,30.90
2019-01-30T13:38:39.097Z,28.62
2019-01-30T13:39:55.813Z,31.07
2019-01-30T13:41:12.587Z,27.05
2019-01-30T13:42:29.070Z,28.98
2019-01-30T13:45:01.795Z,32.03
2019-01-30T13:46:18.371Z,25.57
2019-01-30T13:47:34.543Z,27.37
2019-01-30T13:48:50.832Z,27.25
2019-01-30T13:50:07.361Z,30.37
2019-01-30T13:51:23.407Z,32.13
2019-01-30T13:52:39.549Z,29.55
2019-01-30T13:53:58.217Z,27.60
2019-01-30T13:55:14.321Z,25.57
2019-01-30T13:56:36.047Z,23.18
2019-01-30T13:59:26.495Z,27.70
2019-01-30T14:00:37.241Z,22.90
2019-01-30T14:01:54.571Z,23.00
2019-01-30T14:03:17.111Z,27.52
2019-01-30T14:04:34.663Z,26.33
2019-01-30T14:05:53.796Z,23.02
2019-01-30T14:07:10.324Z,29.45
2019-01-30T14:10:07.096Z,26.23
2019-01-30T14:11:25.194Z,30.80
2019-01-30T14:12:46.916Z,32.13
2019-01-30T14:14:03.486Z,30.48
2019-01-30T14:15:23.715Z,29.35
2019-01-30T14:16:40.169Z,27.10
2019-01-30T14:17:59.962Z,29.52
2019-01-30T14:19:16.797Z,27.65
2019-01-30T14:20:33.021Z,29.30
2019-01-30T14:21:48.946Z,29.10
2019-01-30T14:23:05.113Z,26.10
2019-01-30T14:24:22.191Z,29.40
2019-01-30T14:25:43.067Z,26.15
2019-01-30T14:27:18.854Z,23.65
2019-01-30T14:28:23.418Z,34.53
2019-01-30T14:29:43.006Z,38.08
2019-01-30T14:30:59.782Z,31.93
2019-01-30T14:32:19.095Z,31.20
2019-01-30T14:33:34.867Z,32.45
2019-01-30T14:34:51.569Z,29.77
2019-01-30T14:36:08.299Z,32.25
2019-01-30T14:37:24.593Z,31.20
2019-01-30T14:38:40.986Z,25.80
2019-01-30T14:39:57.200Z,31.25
2019-01-30T14:41:14.260Z,28.80
2019-01-30T14:42:30.404Z,28.12
2019-01-30T14:43:46.804Z,27.67
2019-01-30T14:47:14.243Z,29.42
2019-01-30T14:48:53.005Z,30.37
2019-01-30T14:49:56.950Z,30.15
2019-01-30T14:51:03.658Z,27.95
2019-01-30T14:52:09.534Z,31.73
2019-01-30T14:53:14.909Z,29.82
2019-01-30T14:54:39.491Z,33.10
2019-01-30T15:02:06.082Z,32.08
2019-01-30T15:03:24.183Z,26.35
2019-01-30T15:05:59.763Z,26.87
2019-01-30T15:09:09.102Z,28.57
2019-01-30T15:10:44.461Z,28.38
2019-01-30T15:12:01.431Z,28.98
2019-01-30T15:13:18.001Z,28.45
2019-01-30T15:14:34.664Z,28.98
2019-01-30T15:15:51.244Z,30.48
2019-01-30T15:17:07.473Z,29.32
2019-01-30T15:18:23.871Z,26.65
2019-01-30T15:19:40.060Z,28.25
2019-01-30T15:20:56.769Z,31.35
2019-01-30T15:22:13.469Z,27.58
2019-01-30T15:23:34.227Z,32.20
2019-01-30T15:24:54.570Z,28.00
2019-01-30T15:26:10.664Z,25.55
2019-01-30T15:27:30.167Z,24.87
2019-01-30T15:28:49.822Z,24.80
2019-01-30T15:30:09.298Z,24.25
2019-01-30T15:31:30.574Z,26.27
2019-01-30T15:32:49.227Z,21.85
2019-01-30T15:34:06.071Z,23.47
2019-01-30T15:35:33.112Z,22.05
2019-01-30T15:36:38.728Z,21.02
2019-01-30T15:37:44.063Z,24.95
2019-01-30T15:38:53.337Z,22.85
2019-01-30T15:40:32.339Z,22.82
2019-01-30T15:41:57.903Z,20.35
2019-01-30T15:43:01.700Z,25.02
2019-01-30T15:44:21.212Z,22.95
2019-01-30T15:45:37.858Z,22.00
2019-01-30T15:48:13.990Z,23.77
2019-01-30T15:49:30.646Z,29.32
2019-01-30T15:50:47.094Z,21.68
2019-01-30T15:52:04.462Z,24.12
2019-01-30T15:53:23.210Z,23.80
2019-01-30T15:54:39.872Z,29.32
2019-01-30T15:55:56.682Z,24.63
2019-01-30T15:57:12.860Z,35.85
2019-01-30T15:58:32.348Z,27.05
2019-01-30T15:59:49.351Z,29.75
2019-01-30T16:01:05.689Z,30.27
2019-01-30T16:02:22.746Z,25.52
2019-01-30T16:03:39.600Z,29.98
2019-01-30T16:04:56.440Z,32.70
2019-01-30T16:06:12.573Z,27.17
2019-01-30T16:07:29.524Z,32.63
2019-01-30T16:08:45.844Z,35.35
2019-01-30T16:10:04.107Z,29.32
2019-01-30T16:11:20.749Z,33.50
2019-01-30T16:14:20.206Z,36.05
2019-01-30T16:15:36.271Z,30.85
2019-01-30T16:16:52.441Z,31.27
2019-01-30T16:18:11.882Z,28.87
2019-01-30T16:19:29.693Z,40.30
2019-01-30T16:20:46.651Z,30.45
2019-01-30T16:22:02.974Z,33.95
2019-01-30T16:25:08.753Z,40.95
2019-01-30T16:26:19.504Z,37.45
2019-01-30T16:27:35.704Z,37.53
2019-01-30T16:28:52.500Z,38.67
2019-01-30T16:30:08.639Z,38.88
2019-01-30T16:31:24.667Z,35.68
2019-01-30T16:32:41.106Z,37.83
2019-01-30T16:33:57.753Z,36.68
2019-01-30T16:35:14.394Z,41.83
2019-01-30T16:36:35.528Z,35.38
2019-01-30T16:37:48.991Z,41.10
2019-01-30T16:39:08.121Z,37.63
2019-01-30T16:40:25.020Z,38.85
2019-01-30T16:41:44.688Z,42.33
2019-01-30T16:43:01.626Z,41.45
2019-01-30T16:44:18.377Z,42.08
2019-01-30T16:45:34.492Z,41.58
2019-01-30T16:46:54.008Z,34.40
2019-01-30T16:48:10.252Z,44.95
2019-01-30T16:49:26.336Z,40.23
2019-01-30T16:52:36.955Z,43.17
2019-01-30T16:53:53.133Z,41.28
2019-01-30T16:55:11.820Z,41.00
2019-01-30T16:56:29.546Z,51.80
2019-01-30T16:57:46.505Z,46.20
2019-01-30T16:59:02.772Z,43.42
2019-01-30T17:00:19.895Z,37.13
2019-01-30T17:03:03.299Z,50.60
2019-01-30T17:04:20.408Z,45.15
2019-01-30T17:05:37.186Z,43.00
2019-01-30T17:06:54.337Z,51.48
2019-01-30T17:08:15.212Z,46.68
2019-01-30T17:09:29.680Z,49.53
2019-01-30T17:10:49.173Z,48.28
2019-01-30T17:12:06.936Z,44.48
2019-01-30T17:15:06.118Z,48.42
2019-01-30T17:16:42.699Z,44.05
2019-01-30T17:17:49.693Z,47.65
2019-01-30T17:19:10.336Z,53.35
2019-01-30T17:22:08.603Z,47.20
2019-01-30T17:23:25.109Z,44.38
2019-01-30T17:24:42.174Z,50.00
2019-01-30T17:25:58.850Z,51.70
2019-01-30T17:27:15.526Z,48.65
2019-01-30T17:28:35.958Z,46.63
2019-01-30T17:29:52.507Z,51.60
2019-01-30T17:31:09.386Z,48.78
2019-01-30T17:32:25.696Z,50.12
2019-01-30T17:33:42.191Z,48.33
2019-01-30T17:35:02.820Z,50.25
2019-01-30T17:36:19.711Z,49.95
2019-01-30T17:37:37.745Z,54.93
2019-01-30T17:38:54.187Z,47.53
2019-01-30T17:40:11.035Z,54.25
2019-01-30T17:41:30.411Z,53.02
2019-01-30T17:42:48.883Z,59.50
2019-01-30T17:44:12.814Z,59.95
2019-01-30T17:48:50.037Z,52.33